• Join FlightAware (Why Join?)
  • Login
  • US Flag 
05:50AM EDT


 

Airport Tracker/Info


-or-


 

Live Flight TrackerFlight Track Log ✈ JIA2237 ✈ 08-May-2013 ✈ KILM - KCLT

Flight Track Log - Related Links

Times and Time Zones

All times are in EDT time to prevent confusion due to time zone crossing. See the JIA2237 flight status page for this flight to view local times or setup timezone preferences in your user account.

Time Position Orientation Groundspeed Altitude Reporting Facility
EDT Latitude Longitude Course Direction KTS MPH feet Rate Location/Type
08:05PM 34.2397 -77.9886 268° West 196 226 4,200  Level Washington Center
08:06PM 34.2400 -78.0714 270° West 225 259 7,000 3,120 Climbing Washington Center
08:07PM 34.2500 -78.3266 270° West  Level FlightAware Approximate
08:07PM 34.2403 -78.1594 270° West 248 285 10,500  Level Washington Center
08:08PM 34.2500 -78.4337 270° West  Level FlightAware Approximate
08:08PM 34.2411 -78.1931 272° West 257 296 11,400  Level Jacksonville Center
08:09PM 34.2500 -78.5408 270° West  Level FlightAware Approximate
08:09PM 34.2406 -78.2911 270° West 265 305 13,600  Level Jacksonville Center
08:10PM 34.2487 -78.6404 268° West  Level FlightAware Approximate
08:10PM 34.2403 -78.3989 270° West 301 346 16,300  Level Jacksonville Center
08:11PM 34.2455 -78.7400 268° West  Level FlightAware Approximate
08:11PM 34.2378 -78.5047 268° West 316 364 19,000  Level Jacksonville Center
08:12PM 34.2375 -78.6153 270° West 329 379 21,200 1,500 Climbing Jacksonville Center
08:13PM 34.2372 -78.7308 270° West 335 386 22,000 360 Climbing Jacksonville Center
08:14PM 34.2392 -78.8561 271° West 355 409 22,000  Level Jacksonville Center
08:15PM 34.2389 -78.9817 270° West 368 423 22,000  Level Jacksonville Center
08:16PM 34.2386 -79.1075 270° West 373 429 22,000  Level Jacksonville Center
08:17PM 34.2342 -79.2381 268° West 383 441 22,000  Level Jacksonville Center
08:18PM 34.2336 -79.3664 270° West 383 441 22,000  Level Jacksonville Center
08:19PM 34.2456 -79.4989 276° West 369 425 22,000  Level Jacksonville Center
08:20PM 34.2942 -79.6000 300° West 340 391 22,000  Level Jacksonville Center
08:21PM 34.3533 -79.7058 304° West 361 415 22,000 -120 Level Jacksonville Center
08:22PM 34.4100 -79.8044 305° West 367 422 21,800 -1,200 Descending Jacksonville Center
08:23PM 34.4686 -79.9056 305° West 373 429 19,700 -2,100 Descending Jacksonville Center
08:24PM 34.5189 -80.0022 302° West 366 421 17,700 -1,980 Descending Jacksonville Center
08:25PM 34.6078 -80.1725 302° West 320 368 14,200 -1,920 Descending Atlanta Center
08:26PM 34.6519 -80.2511 304° West 313 360 12,500 -1,560 Descending Atlanta Center
08:27PM 34.6983 -80.3350 304° West 296 341 11,200 -780 Descending Atlanta Center
08:28PM 34.7506 -80.4036 313° West 272 313 11,000 -60 Descending Atlanta Center
08:29PM 34.8092 -80.4769 314° West 277 319 11,100  Climbing Atlanta Center
08:30PM 34.8611 -80.5431 314° West 279 321 11,100  Level Atlanta Center
08:31PM 34.9172 -80.6117 315° West 278 320 11,100 -60 Level Atlanta Center
08:32PM 34.9711 -80.6778 315° West 279 321 11,000 -600 Descending Atlanta Center
08:33PM 35.0208 -80.7392 315° West 275 316 10,000 -900 Descending Atlanta Center
08:34PM 35.0853 -80.8128 317° Northwest 260 299 9,100 -480 Descending Atlanta Center
08:35PM 35.1461 -80.8206 354° North 228 262 9,100 -780 Level Atlanta Center
08:36PM 35.2083 -80.8028 13° North 239 275 7,700 -1,560 Descending Atlanta Center
08:38PM 35.2586 -80.7347 48° Northeast 241 277 5,800 -1,740 Descending Atlanta Center
08:39PM 35.3094 -80.7658 333° Northwest 205 236 4,100 -1,380 Descending Atlanta Center
08:40PM 35.3067 -80.8142 266° West 175 201 3,100 -840 Descending Atlanta Center
08:40PM 35.2825 -80.8508 231° Southwest 140 161 2,500 -600 Descending Atlanta Center
08:42PM 35.2564 -80.8875 229° Southwest 117 135 1,900 -600 Descending Atlanta Center
08:43PM 35.2361 -80.9161 229° Southwest 125 144 1,300 -660 Descending Atlanta Center